Time;durP1;ratioP1;P1;durP2;ratioP2;P2;SDS_P1;SDS_P2;PMS_P1;PMS_P2;Temp;Humidity;BMP_temperature;BMP_pressure;BME280_temperature;BME280_humidity;BME280_pressure;Samples;Min_cycle;Max_cycle;Signal;HPM_P1;HPM_P2
2021/12/25 00:01:46;;;;;;;9.32;3.35;;;;;;;;;;5076159;28;20040;-21
2021/12/25 00:04:13;;;;;;;2.88;2.50;;;;;;;;;;5076527;28;20036;-21
2021/12/25 00:06:39;;;;;;;6.47;2.60;;;;;;;;;;5075827;28;20028;-21
2021/12/25 00:09:06;;;;;;;4.88;3.03;;;;;;;;;;5075843;28;20025;-21
2021/12/25 00:11:32;;;;;;;8.55;3.20;;;;;;;;;;5076120;28;20074;-24
2021/12/25 00:13:58;;;;;;;8.55;2.38;;;;;;;;;;5076196;28;20028;-24
2021/12/25 00:16:24;;;;;;;3.65;2.85;;;;;;;;;;5075730;28;20032;-22
2021/12/25 00:18:51;;;;;;;4.40;2.47;;;;;;;;;;5075645;28;20402;-22
2021/12/25 00:21:17;;;;;;;5.60;2.40;;;;;;;;;;5076163;28;20116;-21
2021/12/25 00:23:43;;;;;;;5.07;2.50;;;;;;;;;;5075712;28;20078;-21
2021/12/25 00:26:26;;;;;;;4.95;2.25;;;;;;;;;;5074811;28;20364;-21
2021/12/25 00:29:00;;;;;;;3.97;2.75;;;;;;;;;;5075739;28;20112;-21
2021/12/25 00:31:56;;;;;;;5.03;2.45;;;;;;;;;;5075771;28;20017;-21
2021/12/25 00:34:15;;;;;;;6.30;2.58;;;;;;;;;;5075093;28;20040;-24
2021/12/25 00:36:41;;;;;;;4.47;2.40;;;;;;;;;;5075239;28;20032;-21
2021/12/25 00:39:07;;;;;;;4.70;2.70;;;;;;;;;;5075485;28;20024;-21
2021/12/25 00:41:33;;;;;;;5.40;3.05;;;;;;;;;;5075483;28;20107;-22
2021/12/25 00:44:00;;;;;;;5.50;3.22;;;;;;;;;;5075141;28;20115;-21
2021/12/25 00:46:26;;;;;;;6.40;2.70;;;;;;;;;;5075090;28;20175;-21
2021/12/25 00:48:52;;;;;;;4.13;3.25;;;;;;;;;;5075379;28;20421;-21
2021/12/25 00:51:18;;;;;;;3.08;2.40;;;;;;;;;;5075062;28;20505;-22
2021/12/25 00:53:45;;;;;;;3.08;2.83;;;;;;;;;;5075238;28;20055;-22
2021/12/25 00:56:11;;;;;;;5.50;2.95;;;;;;;;;;5075280;28;20035;-22
2021/12/25 00:58:37;;;;;;;4.10;3.10;;;;;;;;;;5074991;28;20025;-22
2021/12/25 01:01:03;;;;;;;3.55;2.63;;;;;;;;;;5075472;28;20024;-22
2021/12/25 01:03:29;;;;;;;5.53;3.15;;;;;;;;;;5074843;28;20031;-21
2021/12/25 01:05:56;;;;;;;3.42;2.65;;;;;;;;;;5074741;28;20039;-21
2021/12/25 01:08:22;;;;;;;3.90;2.08;;;;;;;;;;5074801;28;20063;-21
2021/12/25 01:10:48;;;;;;;5.80;3.17;;;;;;;;;;5074788;28;20100;-21
2021/12/25 01:13:28;;;;;;;3.70;2.38;;;;;;;;;;5075401;28;20033;-22
2021/12/25 01:21:39;;;;;;;5.43;3.83;;;;;;;;;;5063620;28;20040;-22
2021/12/25 01:24:24;;;;;;;2.47;2.10;;;;;;;;;;5074156;28;20518;-22
2021/12/25 01:29:27;;;;;;;3.80;2.67;;;;;;;;;;5074888;28;20473;-21
2021/12/25 01:32:18;;;;;;;3.00;2.70;;;;;;;;;;5074736;28;20039;-21
2021/12/25 01:37:25;;;;;;;3.13;2.20;;;;;;;;;;5074517;28;20119;-21
2021/12/25 01:40:13;;;;;;;3.63;2.40;;;;;;;;;;5074509;28;20028;-21
2021/12/25 01:48:04;;;;;;;4.22;2.17;;;;;;;;;;5074501;28;20297;-21
2021/12/25 01:50:30;;;;;;;6.88;2.35;;;;;;;;;;5074453;28;20121;-22
2021/12/25 01:52:57;;;;;;;6.00;2.38;;;;;;;;;;5074324;28;20028;-22
2021/12/25 01:55:29;;;;;;;2.85;2.50;;;;;;;;;;5074905;28;20029;-21
2021/12/25 01:57:55;;;;;;;2.78;1.83;;;;;;;;;;5074632;28;20048;-21
2021/12/25 02:00:30;;;;;;;2.05;1.85;;;;;;;;;;5074308;28;20094;-21
2021/12/25 02:02:56;;;;;;;5.70;2.38;;;;;;;;;;5074191;28;20081;-21
2021/12/25 02:05:22;;;;;;;2.50;2.30;;;;;;;;;;5074415;28;20029;-22
2021/12/25 02:07:49;;;;;;;3.17;2.30;;;;;;;;;;5074717;28;20515;-21
2021/12/25 02:10:16;;;;;;;4.63;2.35;;;;;;;;;;5074233;28;20024;-21
2021/12/25 02:12:42;;;;;;;2.47;1.92;;;;;;;;;;5074270;28;20062;-22
2021/12/25 02:15:15;;;;;;;2.33;2.13;;;;;;;;;;5074122;28;20029;-22
2021/12/25 02:20:16;;;;;;;4.38;2.42;;;;;;;;;;5074492;28;20040;-24
2021/12/25 02:22:42;;;;;;;3.55;1.95;;;;;;;;;;5073995;28;20099;-21
2021/12/25 02:25:09;;;;;;;3.28;2.53;;;;;;;;;;5073813;28;20055;-21
2021/12/25 02:27:36;;;;;;;2.40;2.05;;;;;;;;;;5074581;28;20045;-22
2021/12/25 02:30:03;;;;;;;3.33;2.60;;;;;;;;;;5074033;28;20455;-22
2021/12/25 02:32:29;;;;;;;3.35;1.98;;;;;;;;;;5074087;28;20017;-21
2021/12/25 02:34:55;;;;;;;5.43;2.65;;;;;;;;;;5074254;28;20611;-21
2021/12/25 02:37:22;;;;;;;3.22;2.50;;;;;;;;;;5074514;28;20025;-21
2021/12/25 02:39:48;;;;;;;3.85;2.33;;;;;;;;;;5074221;28;20033;-22
2021/12/25 02:42:15;;;;;;;6.03;2.25;;;;;;;;;;5073830;28;20041;-21
2021/12/25 02:44:41;;;;;;;3.83;2.28;;;;;;;;;;5074030;28;20371;-21
2021/12/25 02:47:19;;;;;;;4.63;2.40;;;;;;;;;;5074620;28;20024;-22
2021/12/25 02:49:54;;;;;;;2.00;1.77;;;;;;;;;;5075893;28;20033;-21
2021/12/25 02:52:20;;;;;;;4.68;1.85;;;;;;;;;;5077853;28;20044;-21
2021/12/25 02:54:46;;;;;;;3.83;2.67;;;;;;;;;;5077278;28;20055;-22
2021/12/25 02:57:13;;;;;;;1.75;1.63;;;;;;;;;;5077816;28;20036;-22
2021/12/25 02:59:39;;;;;;;3.28;2.47;;;;;;;;;;5077498;28;20032;-21
2021/12/25 03:02:16;;;;;;;3.70;2.33;;;;;;;;;;5077665;28;20028;-23
2021/12/25 03:04:44;;;;;;;2.60;1.90;;;;;;;;;;5077422;28;20031;-22
2021/12/25 03:07:11;;;;;;;3.40;1.98;;;;;;;;;;5076206;28;20047;-22
2021/12/25 03:09:37;;;;;;;2.40;2.22;;;;;;;;;;5077284;28;20024;-22
2021/12/25 03:12:06;;;;;;;2.88;2.60;;;;;;;;;;5077227;28;20359;-22
2021/12/25 03:14:50;;;;;;;2.47;1.77;;;;;;;;;;5077260;28;20056;-22
2021/12/25 03:17:17;;;;;;;3.00;1.98;;;;;;;;;;5077517;28;20017;-21
2021/12/25 03:19:43;;;;;;;2.20;1.75;;;;;;;;;;5077172;28;20035;-22
2021/12/25 03:22:09;;;;;;;2.88;2.10;;;;;;;;;;5076798;28;20059;-22
2021/12/25 03:24:35;;;;;;;2.30;2.10;;;;;;;;;;5076622;28;20120;-22
2021/12/25 03:27:01;;;;;;;2.45;1.98;;;;;;;;;;5076677;28;20362;-21
2021/12/25 03:29:28;;;;;;;5.07;2.53;;;;;;;;;;5076967;28;20304;-22
2021/12/25 03:31:54;;;;;;;2.53;1.92;;;;;;;;;;5077171;28;20411;-21
2021/12/25 03:34:20;;;;;;;3.22;2.45;;;;;;;;;;5077191;28;20024;-21
2021/12/25 03:36:47;;;;;;;4.45;1.80;;;;;;;;;;5076844;28;20048;-23
2021/12/25 03:39:14;;;;;;;2.45;2.15;;;;;;;;;;5076837;28;20426;-22
2021/12/25 03:41:40;;;;;;;4.18;2.03;;;;;;;;;;5076761;28;20428;-21
2021/12/25 03:44:07;;;;;;;5.00;2.70;;;;;;;;;;5076644;28;20036;-22
2021/12/25 03:46:33;;;;;;;3.92;1.80;;;;;;;;;;5076329;28;20025;-22
2021/12/25 03:49:05;;;;;;;3.38;1.90;;;;;;;;;;5076381;28;20094;-22
2021/12/25 03:59:55;;;;;;;3.70;2.15;;;;;;;;;;5076098;28;20052;-22
2021/12/25 04:02:27;;;;;;;2.63;2.10;;;;;;;;;;5076211;28;20089;-21
2021/12/25 04:04:54;;;;;;;2.90;1.83;;;;;;;;;;5075977;28;20025;-22
2021/12/25 04:07:44;;;;;;;1.90;1.80;;;;;;;;;;5076249;28;20059;-22
2021/12/25 04:10:06;;;;;;;2.90;1.80;;;;;;;;;;5075743;28;20048;-22
2021/12/25 04:12:33;;;;;;;3.50;2.15;;;;;;;;;;5075769;28;20099;-22
2021/12/25 04:14:59;;;;;;;2.35;2.15;;;;;;;;;;5074693;28;20025;-21
2021/12/25 04:17:25;;;;;;;2.45;2.25;;;;;;;;;;5076207;28;20044;-21
2021/12/25 04:19:51;;;;;;;3.17;2.13;;;;;;;;;;5075681;28;20055;-21
2021/12/25 04:22:26;;;;;;;2.20;2.00;;;;;;;;;;5075587;28;20044;-22
2021/12/25 04:24:52;;;;;;;3.17;1.95;;;;;;;;;;5075533;28;20087;-21
2021/12/25 04:27:19;;;;;;;3.45;2.08;;;;;;;;;;5075556;28;20029;-21
2021/12/25 04:29:59;;;;;;;4.05;1.98;;;;;;;;;;5075534;28;20092;-21
2021/12/25 05:02:50;;;;;;;2.22;2.00;;;;;;;;;;5075368;28;20091;-21
2021/12/25 05:05:18;;;;;;;2.35;1.58;;;;;;;;;;5073826;28;20032;-21
2021/12/25 05:07:45;;;;;;;2.22;1.88;;;;;;;;;;5074876;28;20027;-22
2021/12/25 05:10:11;;;;;;;1.83;1.73;;;;;;;;;;5075324;28;20020;-21
2021/12/25 05:12:37;;;;;;;2.22;2.00;;;;;;;;;;5074339;28;20028;-21
2021/12/25 05:15:04;;;;;;;2.00;1.90;;;;;;;;;;5075269;28;20035;-21
2021/12/25 05:17:30;;;;;;;3.25;2.17;;;;;;;;;;5074688;28;20440;-21
2021/12/25 05:19:58;;;;;;;3.72;1.88;;;;;;;;;;5075246;28;20044;-22
2021/12/25 05:22:24;;;;;;;2.10;1.80;;;;;;;;;;5074929;28;20029;-21
2021/12/25 05:24:51;;;;;;;3.53;1.85;;;;;;;;;;5074452;28;20040;-21
2021/12/25 05:27:18;;;;;;;1.67;1.58;;;;;;;;;;5074973;28;20058;-21
2021/12/25 05:29:46;;;;;;;1.90;1.73;;;;;;;;;;5074696;28;20040;-21
2021/12/25 05:32:17;;;;;;;3.25;2.17;;;;;;;;;;5075128;28;20016;-22
2021/12/25 05:34:43;;;;;;;2.00;1.80;;;;;;;;;;5075470;28;20024;-21
2021/12/25 05:37:10;;;;;;;2.25;1.75;;;;;;;;;;5074625;28;20329;-22
2021/12/25 05:39:36;;;;;;;2.85;1.48;;;;;;;;;;5074566;28;20115;-21
2021/12/25 05:42:02;;;;;;;2.13;2.03;;;;;;;;;;5074764;28;20650;-22
2021/12/25 05:44:29;;;;;;;1.73;1.60;;;;;;;;;;5073609;28;20513;-21
2021/12/25 05:46:55;;;;;;;2.25;2.05;;;;;;;;;;5074393;28;20358;-21
2021/12/25 05:49:24;;;;;;;1.63;1.52;;;;;;;;;;5074434;28;20103;-21
2021/12/25 05:51:50;;;;;;;2.20;2.00;;;;;;;;;;5074279;28;20112;-22
2021/12/25 05:54:16;;;;;;;1.65;1.30;;;;;;;;;;5074593;28;20115;-22
2021/12/25 05:56:43;;;;;;;1.48;1.27;;;;;;;;;;5074623;28;20037;-22
2021/12/25 05:59:09;;;;;;;2.25;1.92;;;;;;;;;;5074811;28;20047;-22
2021/12/25 06:01:35;;;;;;;2.20;1.60;;;;;;;;;;5073341;28;20451;-22
2021/12/25 06:04:01;;;;;;;2.53;1.67;;;;;;;;;;5073251;28;20086;-21
2021/12/25 06:06:27;;;;;;;2.13;1.92;;;;;;;;;;5074102;28;20032;-21
2021/12/25 06:08:53;;;;;;;1.63;1.50;;;;;;;;;;5074710;28;20036;-22
2021/12/25 06:11:20;;;;;;;2.35;1.70;;;;;;;;;;5074176;28;20095;-23
2021/12/25 06:13:56;;;;;;;4.15;1.60;;;;;;;;;;5074035;28;20089;-22
2021/12/25 06:16:23;;;;;;;1.90;1.40;;;;;;;;;;5074108;28;20036;-22
2021/12/25 06:18:49;;;;;;;1.98;1.80;;;;;;;;;;5074104;28;20479;-21
2021/12/25 06:21:15;;;;;;;1.30;1.20;;;;;;;;;;5074644;28;20024;-22
2021/12/25 06:23:41;;;;;;;1.92;1.80;;;;;;;;;;5075097;28;20051;-21
2021/12/25 06:26:08;;;;;;;2.22;1.95;;;;;;;;;;5077593;28;20049;-22
2021/12/25 06:28:34;;;;;;;2.10;1.52;;;;;;;;;;5078115;28;20103;-21
2021/12/25 06:31:00;;;;;;;1.70;1.52;;;;;;;;;;5078096;28;20024;-22
2021/12/25 06:33:26;;;;;;;1.73;1.63;;;;;;;;;;5076726;28;20367;-22
2021/12/25 06:35:52;;;;;;;4.57;2.95;;;;;;;;;;5077753;28;20035;-22
2021/12/25 06:38:18;;;;;;;1.90;1.70;;;;;;;;;;5077690;28;20131;-21
2021/12/25 06:40:45;;;;;;;2.17;1.70;;;;;;;;;;5077673;28;20036;-21
2021/12/25 06:43:11;;;;;;;2.38;1.63;;;;;;;;;;5078094;28;20099;-22
2021/12/25 06:45:37;;;;;;;3.08;1.90;;;;;;;;;;5078020;28;20051;-22
2021/12/25 06:48:03;;;;;;;1.92;1.77;;;;;;;;;;5077541;28;20028;-21
2021/12/25 06:50:29;;;;;;;3.72;1.80;;;;;;;;;;5077732;28;20044;-21
2021/12/25 06:52:56;;;;;;;2.13;1.75;;;;;;;;;;5077517;28;20017;-22
2021/12/25 06:55:22;;;;;;;1.35;1.25;;;;;;;;;;5077372;28;20044;-21
2021/12/25 06:57:54;;;;;;;1.83;1.73;;;;;;;;;;5077358;28;20048;-22
2021/12/25 07:00:21;;;;;;;2.75;1.75;;;;;;;;;;5077557;28;20032;-21
2021/12/25 07:02:48;;;;;;;2.53;1.60;;;;;;;;;;5076144;28;20040;-21
2021/12/25 07:05:14;;;;;;;3.15;1.75;;;;;;;;;;5077340;28;20036;-22
2021/12/25 07:07:40;;;;;;;1.73;1.58;;;;;;;;;;5077124;28;20028;-21
2021/12/25 07:10:07;;;;;;;2.20;1.83;;;;;;;;;;5077341;28;20036;-22
2021/12/25 07:12:36;;;;;;;2.97;1.73;;;;;;;;;;5076926;28;20028;-22
2021/12/25 07:15:07;;;;;;;2.20;1.40;;;;;;;;;;5076929;28;20040;-21
2021/12/25 07:17:33;;;;;;;2.67;2.17;;;;;;;;;;5077208;28;20025;-21
2021/12/25 07:20:00;;;;;;;2.42;1.60;;;;;;;;;;5077159;28;20090;-22
2021/12/25 07:22:27;;;;;;;2.20;1.67;;;;;;;;;;5077027;28;20444;-22
2021/12/25 07:24:53;;;;;;;1.92;1.58;;;;;;;;;;5076699;28;20048;-22
2021/12/25 07:27:20;;;;;;;1.50;1.40;;;;;;;;;;5076779;28;20040;-21
2021/12/25 07:29:46;;;;;;;2.67;1.35;;;;;;;;;;5077266;28;20024;-24
2021/12/25 07:32:12;;;;;;;2.90;1.55;;;;;;;;;;5076629;28;20452;-22
2021/12/25 07:34:40;;;;;;;2.00;1.58;;;;;;;;;;5075188;28;20024;-22
2021/12/25 07:37:06;;;;;;;2.95;2.22;;;;;;;;;;5076626;28;20029;-22
2021/12/25 07:39:33;;;;;;;2.15;1.60;;;;;;;;;;5076598;28;20024;-21
2021/12/25 07:41:59;;;;;;;1.60;1.50;;;;;;;;;;5076712;28;20086;-22
2021/12/25 07:44:25;;;;;;;1.65;1.55;;;;;;;;;;5077065;28;20099;-21
2021/12/25 07:46:53;;;;;;;1.60;1.50;;;;;;;;;;5076365;28;20119;-22
2021/12/25 07:49:20;;;;;;;1.65;1.50;;;;;;;;;;5076331;28;20028;-21
2021/12/25 07:51:47;;;;;;;2.25;1.80;;;;;;;;;;5075290;28;20467;-22
2021/12/25 07:54:14;;;;;;;1.88;1.73;;;;;;;;;;5076324;28;20115;-22
2021/12/25 07:56:40;;;;;;;1.50;1.40;;;;;;;;;;5076505;28;20025;-22
2021/12/25 07:59:06;;;;;;;1.60;1.50;;;;;;;;;;5076730;28;20032;-22
2021/12/25 08:01:34;;;;;;;1.60;1.50;;;;;;;;;;5076391;28;20029;-24
2021/12/25 08:04:01;;;;;;;1.65;1.55;;;;;;;;;;5075985;28;20024;-22
2021/12/25 08:06:27;;;;;;;1.67;1.50;;;;;;;;;;5076196;28;20036;-21
2021/12/25 08:08:56;;;;;;;1.42;1.30;;;;;;;;;;5076491;28;20063;-21
2021/12/25 08:11:22;;;;;;;1.70;1.60;;;;;;;;;;5076384;28;20028;-21
2021/12/25 08:13:48;;;;;;;1.98;1.88;;;;;;;;;;5075768;28;20031;-21
2021/12/25 08:16:15;;;;;;;1.60;1.50;;;;;;;;;;5075744;28;20024;-22
2021/12/25 08:18:41;;;;;;;1.48;1.38;;;;;;;;;;5076265;28;20094;-22
2021/12/25 08:21:07;;;;;;;1.63;1.38;;;;;;;;;;5076189;28;20321;-21
2021/12/25 08:23:33;;;;;;;1.60;1.50;;;;;;;;;;5075687;28;20028;-21
2021/12/25 08:26:03;;;;;;;1.83;1.42;;;;;;;;;;5075433;28;20048;-22
2021/12/25 08:28:30;;;;;;;1.30;1.20;;;;;;;;;;5075807;28;20461;-22
2021/12/25 08:30:56;;;;;;;2.00;1.80;;;;;;;;;;5075692;28;20104;-24
2021/12/25 08:33:22;;;;;;;1.92;1.83;;;;;;;;;;5075371;28;20024;-22
2021/12/25 08:35:49;;;;;;;2.60;1.65;;;;;;;;;;5075382;28;20024;-21
2021/12/25 08:38:15;;;;;;;4.43;1.33;;;;;;;;;;5075410;28;20024;-22
2021/12/25 08:40:42;;;;;;;1.95;1.58;;;;;;;;;;5075837;28;20090;-21
2021/12/25 08:43:08;;;;;;;1.55;1.45;;;;;;;;;;5074297;28;20029;-21
2021/12/25 08:48:06;;;;;;;4.25;1.83;;;;;;;;;;5074594;28;20031;-21
2021/12/25 08:50:33;;;;;;;2.17;1.58;;;;;;;;;;5075143;28;20104;-22
2021/12/25 08:52:59;;;;;;;1.35;1.25;;;;;;;;;;5075154;28;20082;-22
2021/12/25 08:55:25;;;;;;;1.88;1.70;;;;;;;;;;5075723;28;20081;-21
2021/12/25 08:57:52;;;;;;;1.67;1.50;;;;;;;;;;5075382;28;20077;-22
2021/12/25 09:00:19;;;;;;;1.92;1.70;;;;;;;;;;5075081;28;20039;-21
2021/12/25 09:02:46;;;;;;;1.40;1.30;;;;;;;;;;5075133;28;20021;-21
2021/12/25 09:05:12;;;;;;;1.60;1.50;;;;;;;;;;5073955;28;20032;-22
2021/12/25 09:07:38;;;;;;;1.40;1.30;;;;;;;;;;5075180;28;20020;-21
2021/12/25 09:10:05;;;;;;;1.65;1.52;;;;;;;;;;5075206;28;20029;-22
2021/12/25 09:12:33;;;;;;;1.88;1.38;;;;;;;;;;5075333;28;20059;-21
2021/12/25 09:14:59;;;;;;;1.33;1.23;;;;;;;;;;5075414;28;20407;-21
2021/12/25 09:17:26;;;;;;;1.48;1.38;;;;;;;;;;5075113;28;20359;-22
2021/12/25 09:19:52;;;;;;;1.60;1.50;;;;;;;;;;5075083;28;20032;-21
2021/12/25 09:22:18;;;;;;;1.40;1.30;;;;;;;;;;5074762;28;20505;-21
2021/12/25 09:24:44;;;;;;;1.50;1.40;;;;;;;;;;5074631;28;20331;-21
2021/12/25 09:27:11;;;;;;;1.95;1.70;;;;;;;;;;5074694;28;20363;-22
2021/12/25 09:29:37;;;;;;;1.55;1.45;;;;;;;;;;5074660;28;20528;-22
2021/12/25 09:32:03;;;;;;;1.20;1.10;;;;;;;;;;5074584;28;20029;-22
2021/12/25 09:34:29;;;;;;;2.05;1.23;;;;;;;;;;5074927;28;20025;-21
2021/12/25 09:36:55;;;;;;;1.40;1.23;;;;;;;;;;5074616;28;20036;-22
2021/12/25 09:39:22;;;;;;;1.60;1.20;;;;;;;;;;5074594;28;20025;-21
2021/12/25 09:41:48;;;;;;;1.92;1.50;;;;;;;;;;5074466;28;20043;-22
2021/12/25 09:44:14;;;;;;;1.50;1.33;;;;;;;;;;5074566;28;20025;-23
2021/12/25 09:46:40;;;;;;;1.50;1.30;;;;;;;;;;5074439;28;20060;-21
2021/12/25 09:49:07;;;;;;;1.42;1.33;;;;;;;;;;5075060;28;20028;-21
2021/12/25 09:51:33;;;;;;;1.50;1.40;;;;;;;;;;5074789;28;20052;-21
2021/12/25 09:54:00;;;;;;;1.83;1.60;;;;;;;;;;5074685;28;20035;-21
2021/12/25 09:56:27;;;;;;;1.67;1.58;;;;;;;;;;5073568;28;20367;-22
2021/12/25 09:58:53;;;;;;;2.10;1.95;;;;;;;;;;5077088;28;20119;-22
2021/12/25 10:01:49;;;;;;;1.30;1.20;;;;;;;;;;5078805;28;20029;-21
2021/12/25 10:04:32;;;;;;;1.60;1.50;;;;;;;;;;5069716;28;20111;-21
2021/12/25 10:06:58;;;;;;;2.15;1.73;;;;;;;;;;5078321;28;20060;-21
2021/12/25 10:09:25;;;;;;;1.55;1.45;;;;;;;;;;5078295;28;20025;-22
2021/12/25 10:11:58;;;;;;;1.80;1.70;;;;;;;;;;5078107;28;20082;-21
2021/12/25 10:14:25;;;;;;;3.55;1.58;;;;;;;;;;5078265;28;20024;-22
2021/12/25 10:16:51;;;;;;;1.30;1.20;;;;;;;;;;5078166;28;20025;-22
2021/12/25 10:19:20;;;;;;;2.28;1.52;;;;;;;;;;5078326;28;20037;-22
2021/12/25 10:21:47;;;;;;;1.50;1.40;;;;;;;;;;5077887;28;20024;-22
2021/12/25 10:24:25;;;;;;;4.30;1.40;;;;;;;;;;5077665;28;20040;-24
2021/12/25 10:26:51;;;;;;;1.73;1.63;;;;;;;;;;5078060;28;20328;-21
2021/12/25 10:29:25;;;;;;;1.30;1.20;;;;;;;;;;5076879;28;20024;-21
2021/12/25 10:31:52;;;;;;;1.17;1.10;;;;;;;;;;5077774;28;20039;-21
2021/12/25 10:34:19;;;;;;;1.30;1.20;;;;;;;;;;5078038;28;20355;-22
2021/12/25 10:36:46;;;;;;;3.78;1.80;;;;;;;;;;5077650;28;20147;-23
2021/12/25 10:39:17;;;;;;;1.40;1.30;;;;;;;;;;5076639;28;20047;-22
2021/12/25 10:41:54;;;;;;;1.73;1.63;;;;;;;;;;5077488;28;20054;-21
2021/12/25 10:44:33;;;;;;;1.50;1.40;;;;;;;;;;5077703;28;20471;-22
2021/12/25 10:47:03;;;;;;;1.55;1.45;;;;;;;;;;5076497;28;20089;-21
2021/12/25 10:49:33;;;;;;;1.58;1.48;;;;;;;;;;5077722;28;20108;-21
2021/12/25 10:52:11;;;;;;;1.42;1.17;;;;;;;;;;5077368;28;20021;-22
2021/12/25 10:54:39;;;;;;;1.92;1.13;;;;;;;;;;5077630;28;20081;-24
2021/12/25 10:57:06;;;;;;;2.67;1.30;;;;;;;;;;5077286;28;20028;-21
2021/12/25 10:59:42;;;;;;;1.42;1.33;;;;;;;;;;5076725;28;20028;-23
2021/12/25 11:02:08;;;;;;;3.90;1.27;;;;;;;;;;5077429;28;20439;-21
2021/12/25 11:04:36;;;;;;;1.38;1.05;;;;;;;;;;5076312;28;20101;-21
2021/12/25 11:07:15;;;;;;;1.50;1.40;;;;;;;;;;5077123;28;20094;-21
2021/12/25 11:10:01;;;;;;;1.30;1.20;;;;;;;;;;5076788;28;20032;-21
2021/12/25 11:12:29;;;;;;;1.20;1.10;;;;;;;;;;5077195;28;20025;-22
2021/12/25 11:15:08;;;;;;;2.90;1.70;;;;;;;;;;5077018;28;20043;-22
2021/12/25 11:17:38;;;;;;;1.33;0.93;;;;;;;;;;5077272;28;20368;-21
2021/12/25 11:20:05;;;;;;;1.27;1.17;;;;;;;;;;5076885;28;20029;-21
2021/12/25 11:22:46;;;;;;;1.60;1.42;;;;;;;;;;5076826;28;20067;-21
2021/12/25 11:25:12;;;;;;;1.13;1.10;;;;;;;;;;5076761;28;20064;-22
2021/12/25 11:27:38;;;;;;;1.58;1.42;;;;;;;;;;5077378;28;20059;-21
2021/12/25 11:30:05;;;;;;;1.27;1.17;;;;;;;;;;5077035;28;20021;-22
2021/12/25 11:32:32;;;;;;;1.55;1.45;;;;;;;;;;5076908;28;20100;-21
2021/12/25 11:34:58;;;;;;;1.55;1.45;;;;;;;;;;5076686;28;20067;-21
2021/12/25 11:37:28;;;;;;;1.40;1.30;;;;;;;;;;5076861;28;20031;-21
2021/12/25 11:39:55;;;;;;;1.40;1.30;;;;;;;;;;5076537;28;20029;-22
2021/12/25 11:42:24;;;;;;;1.30;1.20;;;;;;;;;;5076746;28;20033;-21
2021/12/25 11:44:53;;;;;;;1.98;1.33;;;;;;;;;;5076422;28;20174;-22
2021/12/25 11:47:30;;;;;;;1.33;1.23;;;;;;;;;;5076848;28;20025;-21
2021/12/25 11:49:58;;;;;;;2.65;1.33;;;;;;;;;;5076429;28;20329;-21
2021/12/25 11:52:34;;;;;;;1.40;1.27;;;;;;;;;;5076205;28;20570;-21
2021/12/25 11:55:26;;;;;;;1.83;1.23;;;;;;;;;;5076293;28;20067;-23
2021/12/25 12:00:36;;;;;;;1.52;1.40;;;;;;;;;;5076221;28;20032;-22
2021/12/25 12:03:02;;;;;;;1.52;1.25;;;;;;;;;;5076396;28;20029;-21
2021/12/25 12:05:31;;;;;;;1.90;1.30;;;;;;;;;;5076068;28;20032;-22
2021/12/25 12:08:05;;;;;;;1.27;1.20;;;;;;;;;;5076660;28;20103;-21
2021/12/25 12:10:46;;;;;;;1.10;1.10;;;;;;;;;;5076361;28;20036;-21
2021/12/25 12:13:23;;;;;;;1.13;1.10;;;;;;;;;;5076197;28;20027;-22
2021/12/25 12:15:51;;;;;;;1.67;1.35;;;;;;;;;;5075905;28;20120;-22
2021/12/25 12:18:26;;;;;;;1.65;1.55;;;;;;;;;;5076097;28;20379;-23
2021/12/25 12:20:57;;;;;;;2.45;1.23;;;;;;;;;;5076022;28;20375;-21
2021/12/25 12:23:48;;;;;;;1.48;1.38;;;;;;;;;;5075964;28;20052;-22
2021/12/25 12:26:15;;;;;;;1.23;1.13;;;;;;;;;;5075844;28;20032;-21
2021/12/25 12:28:52;;;;;;;1.00;1.00;;;;;;;;;;5075835;28;20051;-22
2021/12/25 12:31:38;;;;;;;1.52;1.30;;;;;;;;;;5075788;28;20035;-23
2021/12/25 12:34:27;;;;;;;1.35;1.25;;;;;;;;;;5075386;28;20024;-22
2021/12/25 12:36:53;;;;;;;1.30;1.20;;;;;;;;;;5066691;28;20101;-21
2021/12/25 12:39:19;;;;;;;1.10;1.10;;;;;;;;;;5075859;28;20059;-21
2021/12/25 12:41:53;;;;;;;1.27;1.17;;;;;;;;;;5075147;28;20025;-21
2021/12/25 12:44:29;;;;;;;2.15;1.20;;;;;;;;;;5075176;28;20036;-22
2021/12/25 12:46:58;;;;;;;1.25;1.15;;;;;;;;;;5075196;28;20362;-22
2021/12/25 12:49:24;;;;;;;1.70;1.38;;;;;;;;;;5075369;28;20107;-22
2021/12/25 12:52:12;;;;;;;1.30;1.20;;;;;;;;;;5075113;28;20028;-23
2021/12/25 12:54:39;;;;;;;1.52;1.38;;;;;;;;;;5075065;28;20035;-24
2021/12/25 12:57:06;;;;;;;2.85;1.60;;;;;;;;;;5075362;28;20107;-22
2021/12/25 12:59:42;;;;;;;1.05;1.05;;;;;;;;;;5075124;28;20024;-21
2021/12/25 13:02:09;;;;;;;1.42;1.33;;;;;;;;;;5075233;28;20028;-22
2021/12/25 13:05:04;;;;;;;1.70;1.23;;;;;;;;;;5075086;28;20028;-22
2021/12/25 13:07:31;;;;;;;1.35;1.25;;;;;;;;;;5066611;28;20079;-22
2021/12/25 13:09:57;;;;;;;1.55;1.45;;;;;;;;;;5075263;28;20025;-23
2021/12/25 13:12:38;;;;;;;1.33;1.23;;;;;;;;;;5075041;28;20016;-22
2021/12/25 13:15:06;;;;;;;1.15;1.15;;;;;;;;;;5075237;28;20032;-22
2021/12/25 13:17:32;;;;;;;1.00;1.00;;;;;;;;;;5074874;28;20412;-22
2021/12/25 13:19:58;;;;;;;1.38;1.10;;;;;;;;;;5075377;28;20029;-21
2021/12/25 13:22:25;;;;;;;1.60;1.50;;;;;;;;;;5075069;28;20103;-22
2021/12/25 13:24:55;;;;;;;1.17;1.05;;;;;;;;;;5074893;28;20055;-22
2021/12/25 13:27:22;;;;;;;2.00;1.50;;;;;;;;;;5075000;28;20033;-21
2021/12/25 13:29:48;;;;;;;1.75;1.42;;;;;;;;;;5074766;28;20097;-22
2021/12/25 13:32:23;;;;;;;1.48;1.38;;;;;;;;;;5074614;28;20085;-21
2021/12/25 13:34:49;;;;;;;1.10;1.00;;;;;;;;;;5074961;28;20024;-21
2021/12/25 13:37:17;;;;;;;2.58;2.38;;;;;;;;;;5075212;28;20456;-21
2021/12/25 13:39:43;;;;;;;1.50;1.40;;;;;;;;;;5074609;28;20028;-21
2021/12/25 13:42:11;;;;;;;1.48;1.02;;;;;;;;;;5074454;28;20028;-24
2021/12/25 13:44:42;;;;;;;1.27;1.17;;;;;;;;;;5074489;28;20451;-22
2021/12/25 13:47:14;;;;;;;1.30;1.20;;;;;;;;;;5074717;28;20083;-21
2021/12/25 13:49:42;;;;;;;1.15;1.05;;;;;;;;;;5074454;28;20020;-22
2021/12/25 13:52:23;;;;;;;1.98;1.30;;;;;;;;;;5074339;28;20017;-21
2021/12/25 13:54:49;;;;;;;1.40;1.30;;;;;;;;;;5075003;28;20111;-21
2021/12/25 13:57:17;;;;;;;1.45;1.15;;;;;;;;;;5074430;28;20501;-22
2021/12/25 13:59:49;;;;;;;0.90;0.77;;;;;;;;;;5073468;28;20459;-21
2021/12/25 14:02:15;;;;;;;1.15;1.05;;;;;;;;;;5074557;28;20079;-21
2021/12/25 14:04:42;;;;;;;1.33;1.23;;;;;;;;;;5074348;28;20043;-21
2021/12/25 14:07:09;;;;;;;0.95;0.95;;;;;;;;;;5074240;28;20036;-23
2021/12/25 14:09:35;;;;;;;1.42;1.33;;;;;;;;;;5074257;28;20029;-21
2021/12/25 14:12:03;;;;;;;1.40;1.25;;;;;;;;;;5074527;28;20393;-22
2021/12/25 14:14:30;;;;;;;2.13;1.48;;;;;;;;;;5074286;28;20056;-23
2021/12/25 14:16:58;;;;;;;1.30;1.20;;;;;;;;;;5074229;28;20068;-22
2021/12/25 14:19:26;;;;;;;1.58;1.48;;;;;;;;;;5074518;28;20029;-21
2021/12/25 14:21:54;;;;;;;1.27;1.17;;;;;;;;;;5074111;28;20028;-21
2021/12/25 14:24:20;;;;;;;1.30;1.20;;;;;;;;;;5074355;28;20056;-23
2021/12/25 14:26:47;;;;;;;1.85;1.33;;;;;;;;;;5074337;28;20141;-22
2021/12/25 14:29:20;;;;;;;1.40;1.30;;;;;;;;;;5074444;28;20035;-22
2021/12/25 14:31:46;;;;;;;1.38;1.27;;;;;;;;;;5074636;28;20040;-22
2021/12/25 14:34:12;;;;;;;1.40;1.30;;;;;;;;;;5074101;28;20456;-21
2021/12/25 14:36:40;;;;;;;1.55;1.45;;;;;;;;;;5074409;28;20035;-22
2021/12/25 14:39:08;;;;;;;1.50;1.40;;;;;;;;;;5074644;28;20029;-22
2021/12/25 14:41:35;;;;;;;0.98;0.98;;;;;;;;;;5074343;28;20062;-21
2021/12/25 14:44:14;;;;;;;1.23;1.13;;;;;;;;;;5073961;28;20111;-21
2021/12/25 14:46:40;;;;;;;2.35;1.27;;;;;;;;;;5077764;28;20444;-22
2021/12/25 14:49:06;;;;;;;1.58;1.48;;;;;;;;;;5077827;28;20036;-22
2021/12/25 14:51:35;;;;;;;1.40;1.30;;;;;;;;;;5078079;28;20107;-22
2021/12/25 14:54:01;;;;;;;0.90;0.90;;;;;;;;;;5077719;28;20402;-22
2021/12/25 14:56:29;;;;;;;1.40;1.30;;;;;;;;;;5077399;28;20495;-22
2021/12/25 14:58:57;;;;;;;0.98;0.98;;;;;;;;;;5077691;28;20394;-23
2021/12/25 15:01:27;;;;;;;1.70;1.60;;;;;;;;;;5077329;28;20033;-22
2021/12/25 15:04:04;;;;;;;1.15;1.05;;;;;;;;;;5077256;28;20031;-22
2021/12/25 15:06:30;;;;;;;1.05;1.05;;;;;;;;;;5077199;28;20040;-22
2021/12/25 15:09:06;;;;;;;1.17;1.17;;;;;;;;;;5077185;28;20047;-22
2021/12/25 15:11:37;;;;;;;1.15;1.15;;;;;;;;;;5077159;28;20518;-21
2021/12/25 15:14:09;;;;;;;1.38;1.27;;;;;;;;;;5077426;28;20017;-21
2021/12/25 15:16:35;;;;;;;1.20;1.10;;;;;;;;;;5077128;28;20111;-23
2021/12/25 15:19:01;;;;;;;1.33;1.23;;;;;;;;;;5077022;28;20345;-21
2021/12/25 15:21:27;;;;;;;1.60;1.50;;;;;;;;;;5077006;28;20050;-22
2021/12/25 15:24:12;;;;;;;1.23;1.15;;;;;;;;;;5076658;28;20024;-22
2021/12/25 15:26:40;;;;;;;1.08;1.00;;;;;;;;;;5076828;28;20115;-21
2021/12/25 15:29:06;;;;;;;1.23;1.13;;;;;;;;;;5076890;28;20031;-21
2021/12/25 15:31:33;;;;;;;1.13;1.02;;;;;;;;;;5076799;28;20033;-21
2021/12/25 15:34:01;;;;;;;1.30;1.20;;;;;;;;;;5076728;28;20422;-21
2021/12/25 15:36:29;;;;;;;1.45;1.15;;;;;;;;;;5076700;28;20451;-21
2021/12/25 15:38:56;;;;;;;0.90;0.90;;;;;;;;;;5076680;28;20039;-23
2021/12/25 15:41:23;;;;;;;1.10;1.10;;;;;;;;;;5076911;28;20017;-21
2021/12/25 15:43:49;;;;;;;1.15;1.08;;;;;;;;;;5076485;28;20055;-22
2021/12/25 15:46:16;;;;;;;1.20;1.10;;;;;;;;;;5076721;28;20039;-22
2021/12/25 15:48:43;;;;;;;1.00;1.00;;;;;;;;;;5076424;28;20111;-21
2021/12/25 15:51:11;;;;;;;1.35;1.23;;;;;;;;;;5076468;28;20028;-21
2021/12/25 15:53:38;;;;;;;1.42;1.33;;;;;;;;;;5076259;28;20056;-21
2021/12/25 15:56:04;;;;;;;0.95;0.95;;;;;;;;;;5076267;28;20111;-21